createdAt,value
2023-04-28T00:00:08.383Z,6.40
2023-04-28T00:02:27.912Z,6.00
2023-04-28T00:04:45.072Z,6.22
2023-04-28T00:07:02.182Z,6.63
2023-04-28T00:09:20.265Z,6.57
2023-04-28T00:11:38.426Z,6.75
2023-04-28T00:13:55.344Z,6.60
2023-04-28T00:16:12.405Z,7.03
2023-04-28T00:18:29.368Z,7.00
2023-04-28T00:20:46.446Z,6.55
2023-04-28T00:23:04.696Z,7.00
2023-04-28T00:25:22.179Z,6.38
2023-04-28T00:27:39.481Z,7.30
2023-04-28T00:29:57.783Z,7.28
2023-04-28T00:32:15.743Z,7.30
2023-04-28T00:34:32.799Z,7.85
2023-04-28T00:36:50.064Z,7.28
2023-04-28T00:39:07.335Z,7.05
2023-04-28T00:41:24.370Z,7.18
2023-04-28T00:43:41.633Z,7.68
2023-04-28T00:45:58.698Z,7.75
2023-04-28T00:48:15.769Z,8.00
2023-04-28T00:50:32.808Z,7.43
2023-04-28T00:52:49.744Z,7.30
2023-04-28T00:55:06.988Z,7.65
2023-04-28T00:57:24.925Z,8.30
2023-04-28T00:59:41.979Z,8.35
2023-04-28T01:01:59.020Z,8.80
2023-04-28T01:04:16.406Z,8.60
2023-04-28T01:06:34.097Z,7.85
2023-04-28T01:08:51.157Z,8.02
2023-04-28T01:11:08.460Z,8.32
2023-04-28T01:13:25.508Z,8.60
2023-04-28T01:15:42.507Z,8.15
2023-04-28T01:17:59.768Z,8.05
2023-04-28T01:20:16.831Z,7.72
2023-04-28T01:22:34.102Z,7.13
2023-04-28T01:24:51.443Z,7.50
2023-04-28T01:27:08.468Z,8.13
2023-04-28T01:29:25.692Z,7.88
2023-04-28T01:31:43.636Z,8.13
2023-04-28T01:34:00.921Z,8.77
2023-04-28T01:36:17.932Z,8.52
2023-04-28T01:38:35.149Z,8.20
2023-04-28T01:40:52.103Z,8.25
2023-04-28T01:43:10.355Z,8.48
2023-04-28T01:45:27.430Z,9.40
2023-04-28T01:47:44.513Z,8.45
2023-04-28T01:50:01.533Z,8.65
2023-04-28T01:52:18.589Z,8.50
2023-04-28T01:54:35.574Z,8.73
2023-04-28T01:56:52.586Z,8.55
2023-04-28T01:59:09.486Z,8.57
2023-04-28T02:01:26.489Z,8.90
2023-04-28T02:03:44.851Z,8.10
2023-04-28T02:06:02.039Z,8.85
2023-04-28T02:08:19.252Z,8.55
2023-04-28T02:10:36.233Z,8.55
2023-04-28T02:12:53.116Z,8.55
2023-04-28T02:15:10.401Z,8.68
2023-04-28T02:17:28.675Z,8.32
2023-04-28T02:19:45.827Z,9.38
2023-04-28T02:22:02.834Z,8.57
2023-04-28T02:24:19.856Z,7.82
2023-04-28T02:26:36.880Z,8.60
2023-04-28T02:28:54.925Z,8.18
2023-04-28T02:31:12.228Z,8.10
2023-04-28T02:33:29.226Z,8.32
2023-04-28T02:35:46.200Z,8.63
2023-04-28T02:38:03.262Z,9.10
2023-04-28T02:40:20.289Z,8.02
2023-04-28T02:42:38.398Z,8.73
2023-04-28T02:44:55.456Z,9.75
2023-04-28T02:47:12.787Z,9.18
2023-04-28T02:49:29.921Z,9.43
2023-04-28T02:51:46.869Z,9.07
2023-04-28T02:54:04.810Z,8.93
2023-04-28T02:56:22.071Z,9.35
2023-04-28T02:58:39.088Z,8.95
2023-04-28T03:00:56.196Z,9.30
2023-04-28T03:03:14.510Z,8.93
2023-04-28T03:05:32.063Z,9.35
2023-04-28T03:07:48.976Z,9.38
2023-04-28T03:10:06.385Z,9.45
2023-04-28T03:12:23.388Z,8.43
2023-04-28T03:14:41.362Z,8.20
2023-04-28T03:16:58.403Z,8.82
2023-04-28T03:19:15.644Z,8.73
2023-04-28T03:21:32.776Z,8.48
2023-04-28T03:23:50.154Z,7.75
2023-04-28T03:26:07.190Z,8.52
2023-04-28T03:28:24.084Z,9.00
2023-04-28T03:30:41.129Z,8.88
2023-04-28T03:32:59.252Z,9.18
2023-04-28T03:35:16.620Z,8.77
2023-04-28T03:37:33.590Z,9.18
2023-04-28T03:39:51.412Z,8.90
2023-04-28T03:42:08.484Z,9.23
2023-04-28T03:44:25.734Z,9.55
2023-04-28T03:46:43.114Z,9.50
2023-04-28T03:49:01.373Z,10.27
2023-04-28T03:51:18.491Z,9.45
2023-04-28T03:53:35.961Z,9.63
2023-04-28T03:55:53.069Z,10.30
2023-04-28T03:58:09.979Z,10.10
2023-04-28T04:00:27.046Z,9.77
2023-04-28T04:02:44.427Z,10.38
2023-04-28T04:05:02.318Z,9.35
2023-04-28T04:07:20.509Z,9.68
2023-04-28T04:09:37.829Z,10.02
2023-04-28T04:11:54.921Z,10.52
2023-04-28T04:14:13.294Z,10.43
2023-04-28T04:16:30.527Z,9.05
2023-04-28T04:18:48.063Z,9.75
2023-04-28T04:21:06.251Z,10.23
2023-04-28T04:23:23.298Z,10.25
2023-04-28T04:25:40.916Z,10.05
2023-04-28T04:27:58.192Z,9.73
2023-04-28T04:30:15.288Z,10.32
2023-04-28T04:32:32.584Z,10.70
2023-04-28T04:34:49.850Z,10.20
2023-04-28T04:37:07.042Z,10.65
2023-04-28T04:39:24.053Z,11.10
2023-04-28T04:41:41.358Z,10.02
2023-04-28T04:43:58.687Z,9.82
2023-04-28T04:46:16.182Z,10.65
2023-04-28T04:48:33.783Z,10.20
2023-04-28T04:50:50.831Z,11.65
2023-04-28T04:53:10.589Z,11.02
2023-04-28T04:55:30.641Z,9.93
2023-04-28T04:57:47.533Z,11.57
2023-04-28T05:00:04.376Z,11.23
2023-04-28T05:02:21.809Z,10.57
2023-04-28T05:04:39.214Z,11.00
2023-04-28T05:06:56.638Z,11.65
2023-04-28T05:09:13.707Z,11.52
2023-04-28T05:11:30.808Z,11.40
2023-04-28T05:13:48.113Z,11.85
2023-04-28T05:16:05.135Z,11.02
2023-04-28T05:18:22.075Z,12.07
2023-04-28T05:20:39.385Z,11.93
2023-04-28T05:22:56.450Z,12.15
2023-04-28T05:25:14.339Z,16.42
2023-04-28T05:27:31.279Z,13.23
2023-04-28T05:29:48.337Z,12.23
2023-04-28T05:32:05.691Z,11.80
2023-04-28T05:34:24.007Z,11.63
2023-04-28T05:36:41.263Z,12.18
2023-04-28T05:38:58.731Z,12.13
2023-04-28T05:41:18.656Z,12.20
2023-04-28T05:43:35.654Z,11.48
2023-04-28T05:45:52.911Z,11.85
2023-04-28T05:48:10.084Z,11.90
2023-04-28T05:50:27.197Z,11.68
2023-04-28T05:52:45.162Z,12.15
2023-04-28T05:55:02.251Z,11.70
2023-04-28T05:57:19.159Z,11.32
2023-04-28T05:59:36.457Z,11.70
2023-04-28T06:01:53.759Z,12.02
2023-04-28T06:04:11.059Z,12.98
2023-04-28T06:06:29.577Z,12.32
2023-04-28T06:08:47.132Z,11.60
2023-04-28T06:11:04.149Z,11.88
2023-04-28T06:13:22.002Z,11.95
2023-04-28T06:15:39.362Z,11.25
2023-04-28T06:17:56.438Z,12.23
2023-04-28T06:20:13.598Z,12.18
2023-04-28T06:22:30.677Z,11.32
2023-04-28T06:24:47.921Z,11.95
2023-04-28T06:27:06.045Z,11.40
2023-04-28T06:29:23.263Z,11.82
2023-04-28T06:31:41.641Z,11.43
2023-04-28T06:33:58.566Z,11.75
2023-04-28T06:36:15.870Z,11.35
2023-04-28T06:38:33.903Z,11.95
2023-04-28T06:40:51.222Z,13.23
2023-04-28T06:43:08.562Z,13.98
2023-04-28T06:45:25.606Z,12.60
2023-04-28T06:47:43.901Z,12.15
2023-04-28T06:50:01.173Z,13.15
2023-04-28T06:52:19.117Z,13.15
2023-04-28T06:54:37.023Z,12.57
2023-04-28T06:56:53.994Z,14.00
2023-04-28T06:59:11.660Z,12.18
2023-04-28T07:01:29.081Z,12.52
2023-04-28T07:03:47.429Z,11.70
2023-04-28T07:06:04.858Z,11.68
2023-04-28T07:08:23.295Z,9.93
2023-04-28T07:10:40.302Z,10.77
2023-04-28T07:12:57.745Z,11.68
2023-04-28T07:15:15.013Z,9.65
2023-04-28T07:17:31.974Z,10.75
2023-04-28T07:19:49.027Z,10.13
2023-04-28T07:22:06.318Z,9.75
2023-04-28T07:24:23.615Z,10.75
2023-04-28T07:26:40.660Z,9.35
2023-04-28T07:28:57.992Z,9.63
2023-04-28T07:31:16.279Z,9.65
2023-04-28T07:33:33.574Z,9.40
2023-04-28T07:35:50.808Z,9.50
2023-04-28T07:38:08.041Z,9.50
2023-04-28T07:40:26.103Z,8.60
2023-04-28T07:42:43.420Z,9.45
2023-04-28T07:45:00.644Z,8.52
2023-04-28T07:47:17.596Z,8.95
2023-04-28T07:49:34.847Z,7.45
2023-04-28T07:51:52.087Z,8.50
2023-04-28T07:54:09.373Z,7.18
2023-04-28T07:56:26.394Z,8.20
2023-04-28T07:58:43.681Z,7.07
2023-04-28T08:01:01.713Z,7.90
2023-04-28T08:03:20.025Z,7.07
2023-04-28T08:05:37.324Z,7.55
2023-04-28T08:07:54.409Z,7.60
2023-04-28T08:10:11.451Z,7.32
2023-04-28T08:12:28.648Z,7.63
2023-04-28T08:14:46.676Z,7.85
2023-04-28T08:17:03.986Z,7.45
2023-04-28T08:19:21.268Z,7.82
2023-04-28T08:21:38.536Z,7.47
2023-04-28T08:23:55.544Z,8.30
2023-04-28T08:26:12.865Z,7.85
2023-04-28T08:28:30.890Z,8.05
2023-04-28T08:30:48.126Z,7.72
2023-04-28T08:33:07.297Z,8.18
2023-04-28T08:35:24.693Z,7.32
2023-04-28T08:37:41.672Z,8.25
2023-04-28T08:39:58.673Z,7.43
2023-04-28T08:42:15.712Z,7.97
2023-04-28T08:44:32.987Z,8.27
2023-04-28T08:46:50.425Z,8.23
2023-04-28T08:49:07.528Z,8.32
2023-04-28T08:51:24.855Z,7.50
2023-04-28T08:54:06.123Z,8.57
2023-04-28T08:56:19.129Z,7.63
2023-04-28T08:58:36.330Z,7.60
2023-04-28T09:00:53.302Z,8.35
2023-04-28T09:03:10.517Z,8.55
2023-04-28T09:05:27.891Z,8.13
2023-04-28T09:07:46.081Z,7.55
2023-04-28T09:10:03.009Z,7.22
2023-04-28T09:12:19.974Z,7.50
2023-04-28T09:14:36.796Z,7.78
2023-04-28T09:16:53.864Z,7.07
2023-04-28T09:19:10.908Z,7.53
2023-04-28T09:21:28.819Z,7.97
2023-04-28T09:23:45.763Z,8.10
2023-04-28T09:26:02.689Z,7.90
2023-04-28T09:28:19.606Z,7.82
2023-04-28T09:30:36.674Z,8.20
2023-04-28T09:32:53.687Z,7.53
2023-04-28T09:35:10.651Z,7.18
2023-04-28T09:37:27.908Z,8.32
2023-04-28T09:39:44.985Z,7.70
2023-04-28T09:42:01.924Z,7.10
2023-04-28T09:44:19.567Z,5.90
2023-04-28T09:46:37.126Z,6.32
2023-04-28T09:48:54.261Z,6.03
2023-04-28T09:51:13.056Z,5.50
2023-04-28T09:53:30.322Z,5.60
2023-04-28T09:55:47.609Z,5.60
2023-04-28T09:58:04.867Z,5.53
2023-04-28T10:00:21.898Z,6.05
2023-04-28T10:02:43.866Z,6.80
2023-04-28T10:05:01.531Z,6.10
2023-04-28T10:07:18.746Z,6.63
2023-04-28T10:09:36.034Z,6.35
2023-04-28T10:11:54.063Z,6.28
2023-04-28T10:14:11.315Z,5.88
2023-04-28T10:16:28.475Z,5.82
2023-04-28T10:18:45.788Z,6.32
2023-04-28T10:21:02.866Z,5.70
2023-04-28T10:23:19.776Z,6.43
2023-04-28T10:25:37.283Z,5.80
2023-04-28T10:27:55.247Z,6.57
2023-04-28T10:30:22.895Z,6.15
2023-04-28T10:32:43.114Z,6.18
2023-04-28T10:35:00.203Z,6.22
2023-04-28T10:37:17.451Z,6.78
2023-04-28T10:39:35.467Z,6.53
2023-04-28T10:41:53.352Z,7.50
2023-04-28T10:44:10.279Z,6.70
2023-04-28T10:46:27.254Z,7.13
2023-04-28T10:48:44.302Z,7.43
2023-04-28T10:51:01.283Z,8.57
2023-04-28T10:53:21.125Z,8.13
2023-04-28T10:55:38.044Z,7.35
2023-04-28T10:57:55.245Z,7.90
2023-04-28T11:00:12.594Z,7.32
2023-04-28T11:02:30.004Z,7.22
2023-04-28T11:04:47.510Z,7.35
2023-04-28T11:07:04.907Z,7.10
2023-04-28T11:09:21.922Z,7.60
2023-04-28T11:11:39.023Z,8.88
2023-04-28T11:13:56.400Z,8.15
2023-04-28T11:16:13.507Z,8.60
2023-04-28T11:18:30.811Z,8.43
2023-04-28T11:20:47.813Z,7.57
2023-04-28T11:23:06.065Z,8.57
2023-04-28T11:25:23.003Z,8.10
2023-04-28T11:27:40.231Z,6.80
2023-04-28T11:29:57.300Z,7.18
2023-04-28T11:32:14.327Z,8.25
2023-04-28T11:34:31.406Z,7.90
2023-04-28T11:36:48.456Z,7.55
2023-04-28T11:39:06.504Z,7.53
2023-04-28T11:41:23.581Z,6.93
2023-04-28T11:43:47.424Z,7.15
2023-04-28T11:48:21.856Z,6.40
2023-04-28T11:50:38.899Z,5.90
2023-04-28T11:52:56.833Z,5.55
2023-04-28T11:55:14.087Z,5.63
2023-04-28T11:57:31.094Z,5.47
2023-04-28T11:59:49.065Z,4.70
2023-04-28T12:02:06.656Z,5.00
2023-04-28T12:04:23.959Z,4.85
2023-04-28T12:06:40.928Z,4.53
2023-04-28T12:08:57.918Z,5.10
2023-04-28T12:11:18.345Z,4.70
2023-04-28T12:13:36.688Z,4.07
2023-04-28T12:15:54.023Z,4.28
2023-04-28T12:18:11.386Z,3.45
2023-04-28T12:20:28.434Z,3.97
2023-04-28T12:22:46.798Z,3.60
2023-04-28T12:25:03.905Z,3.63
2023-04-28T12:27:20.960Z,3.45
2023-04-28T12:29:37.862Z,3.78
2023-04-28T12:31:54.876Z,3.15
2023-04-28T12:34:12.152Z,2.25
2023-04-28T12:36:29.047Z,1.52
2023-04-28T12:38:46.242Z,1.13
2023-04-28T12:41:03.132Z,1.10
2023-04-28T12:43:20.401Z,1.00
2023-04-28T12:45:38.882Z,0.80
2023-04-28T12:47:56.180Z,0.90
2023-04-28T12:50:14.425Z,0.63
2023-04-28T12:52:31.849Z,0.73
2023-04-28T12:54:48.853Z,0.70
2023-04-28T12:57:05.816Z,0.70
2023-04-28T12:59:23.023Z,0.63
2023-04-28T13:01:40.150Z,0.77
2023-04-28T13:03:57.496Z,0.90
2023-04-28T13:06:15.563Z,0.80
2023-04-28T13:08:32.592Z,0.60
2023-04-28T13:10:50.926Z,0.70
2023-04-28T13:13:07.921Z,0.50
2023-04-28T13:15:24.996Z,0.85
2023-04-28T13:17:42.323Z,0.57
2023-04-28T13:19:59.376Z,0.60
2023-04-28T13:22:16.397Z,0.60
2023-04-28T13:24:33.580Z,0.40
2023-04-28T13:26:51.046Z,0.60
2023-04-28T13:29:08.405Z,0.65
2023-04-28T13:31:25.441Z,0.50
2023-04-28T13:33:42.736Z,0.45
2023-04-28T13:35:59.977Z,0.50
2023-04-28T13:38:16.998Z,0.50
2023-04-28T13:40:34.023Z,0.60
2023-04-28T13:42:51.267Z,0.50
2023-04-28T13:45:08.503Z,0.50
2023-04-28T13:47:25.616Z,0.50
2023-04-28T13:49:42.626Z,0.50
2023-04-28T13:51:59.654Z,0.60
2023-04-28T13:54:16.725Z,0.65
2023-04-28T13:56:33.870Z,0.68
2023-04-28T13:58:51.315Z,0.60
2023-04-28T14:01:08.365Z,0.80
2023-04-28T14:03:25.726Z,0.70
2023-04-28T14:05:49.553Z,0.82
2023-04-28T14:10:24.097Z,1.58
2023-04-28T14:12:41.022Z,1.50
2023-04-28T14:14:57.979Z,1.20
2023-04-28T14:17:15.250Z,1.20
2023-04-28T14:19:32.244Z,1.20
2023-04-28T14:21:49.251Z,1.05
2023-04-28T14:24:06.170Z,0.90
2023-04-28T14:26:23.087Z,1.25
2023-04-28T14:28:40.155Z,1.20
2023-04-28T14:30:58.169Z,1.05
2023-04-28T14:33:16.229Z,1.10
2023-04-28T14:35:34.455Z,0.90
2023-04-28T14:37:51.493Z,0.93
2023-04-28T14:40:08.603Z,1.10
2023-04-28T14:42:26.008Z,0.80
2023-04-28T14:44:43.248Z,1.20
2023-04-28T14:47:00.517Z,1.20
2023-04-28T14:49:17.572Z,0.80
2023-04-28T14:51:34.884Z,0.90
2023-04-28T14:53:51.863Z,0.80
2023-04-28T14:56:18.656Z,1.08
2023-04-28T14:58:37.806Z,1.00
2023-04-28T15:00:54.879Z,0.88
2023-04-28T15:03:12.050Z,0.80
2023-04-28T15:05:30.845Z,1.08
2023-04-28T15:07:47.824Z,1.00
2023-04-28T15:10:05.843Z,0.65
2023-04-28T15:12:23.119Z,0.80
2023-04-28T15:14:40.047Z,0.70
2023-04-28T15:16:57.283Z,0.70
2023-04-28T15:19:14.595Z,0.50
2023-04-28T15:21:31.619Z,0.40
2023-04-28T15:23:48.890Z,0.70
2023-04-28T15:26:05.781Z,0.60
2023-04-28T15:28:23.060Z,0.60
2023-04-28T15:30:43.118Z,0.65
2023-04-28T15:33:00.245Z,0.70
2023-04-28T15:35:17.571Z,0.80
2023-04-28T15:37:34.434Z,0.60
2023-04-28T15:39:51.272Z,0.98
2023-04-28T15:42:08.309Z,0.70
2023-04-28T15:44:25.335Z,0.70
2023-04-28T15:46:42.286Z,0.60
2023-04-28T15:48:59.331Z,0.70
2023-04-28T15:51:16.376Z,0.80
2023-04-28T15:53:33.626Z,0.70
2023-04-28T15:55:50.960Z,1.02
2023-04-28T15:58:07.998Z,1.00
2023-04-28T16:00:25.067Z,0.90
2023-04-28T16:02:42.221Z,0.90
2023-04-28T16:04:59.402Z,0.90
2023-04-28T16:07:16.403Z,1.23
2023-04-28T16:09:33.474Z,1.38
2023-04-28T16:11:50.570Z,100.10
2023-04-28T16:14:07.510Z,173.95
2023-04-28T16:16:24.524Z,51.40
2023-04-28T16:18:41.543Z,27.60
2023-04-28T16:20:58.513Z,22.67
2023-04-28T16:23:15.851Z,15.15
2023-04-28T16:25:33.078Z,5.70
2023-04-28T16:27:50.121Z,2.90
2023-04-28T16:30:08.030Z,1.80
2023-04-28T16:32:25.106Z,3.80
2023-04-28T16:34:43.194Z,4.13
2023-04-28T16:37:00.077Z,6.07
2023-04-28T16:39:17.380Z,5.57
2023-04-28T16:41:34.741Z,4.10
2023-04-28T16:43:51.688Z,1.45
2023-04-28T16:46:09.591Z,1.40
2023-04-28T16:48:26.651Z,1.40
2023-04-28T16:50:43.947Z,1.10
2023-04-28T16:53:00.873Z,1.42
2023-04-28T16:55:18.107Z,1.45
2023-04-28T16:57:35.326Z,1.27
2023-04-28T16:59:53.414Z,1.08
2023-04-28T17:02:10.729Z,1.00
2023-04-28T17:04:28.174Z,1.00
2023-04-28T17:06:46.660Z,1.20
2023-04-28T17:09:03.932Z,1.70
2023-04-28T17:11:22.213Z,1.50
2023-04-28T17:13:39.173Z,1.90
2023-04-28T17:15:56.447Z,1.60
2023-04-28T17:18:14.713Z,1.20
2023-04-28T17:20:31.636Z,1.50
2023-04-28T17:22:48.687Z,1.60
2023-04-28T17:25:06.007Z,1.63
2023-04-28T17:27:22.952Z,1.40
2023-04-28T17:29:40.951Z,1.50
2023-04-28T17:31:57.946Z,1.60
2023-04-28T17:34:15.050Z,1.60
2023-04-28T17:36:32.093Z,1.55
2023-04-28T17:38:49.105Z,1.50
2023-04-28T17:41:06.161Z,1.80
2023-04-28T17:43:23.475Z,1.50
2023-04-28T17:45:40.824Z,1.52
2023-04-28T17:47:58.712Z,1.65
2023-04-28T17:50:15.790Z,2.03
2023-04-28T17:52:32.836Z,1.52
2023-04-28T17:54:50.342Z,1.92
2023-04-28T17:57:07.731Z,1.60
2023-04-28T17:59:25.612Z,1.92
2023-04-28T18:01:42.997Z,1.52
2023-04-28T18:04:00.427Z,1.50
2023-04-28T18:06:17.317Z,1.42
2023-04-28T18:08:34.317Z,1.60
2023-04-28T18:10:51.352Z,1.52
2023-04-28T18:13:08.454Z,1.73
2023-04-28T18:15:25.807Z,1.50
2023-04-28T18:17:42.790Z,1.65
2023-04-28T18:19:59.855Z,1.70
2023-04-28T18:22:16.798Z,1.92
2023-04-28T18:24:34.815Z,1.73
2023-04-28T18:26:51.838Z,1.65
2023-04-28T18:29:09.878Z,1.80
2023-04-28T18:31:26.852Z,1.70
2023-04-28T18:33:45.152Z,1.77
2023-04-28T18:36:02.377Z,1.90
2023-04-28T18:38:20.423Z,1.75
2023-04-28T18:40:37.790Z,2.20
2023-04-28T18:42:55.919Z,2.00
2023-04-28T18:45:13.316Z,2.22
2023-04-28T18:47:30.616Z,2.20
2023-04-28T18:49:47.810Z,1.60
2023-04-28T18:52:05.236Z,2.00
2023-04-28T18:54:22.185Z,2.20
2023-04-28T18:56:39.263Z,2.05
2023-04-28T18:58:56.310Z,1.90
2023-04-28T19:01:13.401Z,1.90
2023-04-28T19:03:31.534Z,1.73
2023-04-28T19:05:48.782Z,1.95
2023-04-28T19:08:10.116Z,2.20
2023-04-28T19:10:28.934Z,1.92
2023-04-28T19:12:45.922Z,1.85
2023-04-28T19:15:03.050Z,2.20
2023-04-28T19:17:20.135Z,2.17
2023-04-28T19:19:37.173Z,1.92
2023-04-28T19:21:54.093Z,2.20
2023-04-28T19:24:11.194Z,2.10
2023-04-28T19:26:28.158Z,2.30
2023-04-28T19:28:45.152Z,2.30
2023-04-28T19:31:02.388Z,2.05
2023-04-28T19:33:20.426Z,2.40
2023-04-28T19:35:38.552Z,2.30
2023-04-28T19:37:55.837Z,2.28
2023-04-28T19:40:13.179Z,2.80
2023-04-28T19:42:30.123Z,2.20
2023-04-28T19:44:48.169Z,2.35
2023-04-28T19:47:05.339Z,2.30
2023-04-28T19:49:22.381Z,2.50
2023-04-28T19:51:39.677Z,2.78
2023-04-28T19:53:56.724Z,2.78
2023-04-28T19:56:13.724Z,3.30
2023-04-28T19:58:30.664Z,3.30
2023-04-28T20:00:47.607Z,4.00
2023-04-28T20:03:04.630Z,3.03
2023-04-28T20:05:23.072Z,2.30
2023-04-28T20:07:40.318Z,2.58
2023-04-28T20:09:57.633Z,2.72
2023-04-28T20:12:14.677Z,2.80
2023-04-28T20:14:31.525Z,3.40
2023-04-28T20:16:48.816Z,3.15
2023-04-28T20:19:05.728Z,3.97
2023-04-28T20:21:22.690Z,3.63
2023-04-28T20:23:40.991Z,3.63
2023-04-28T20:25:57.953Z,4.90
2023-04-28T20:28:15.231Z,5.00
2023-04-28T20:30:33.559Z,4.43
2023-04-28T20:32:50.538Z,3.92
2023-04-28T20:35:07.636Z,4.30
2023-04-28T20:37:24.957Z,4.07
2023-04-28T20:39:42.052Z,3.90
2023-04-28T20:41:58.974Z,3.75
2023-04-28T20:44:16.034Z,4.07
2023-04-28T20:46:33.317Z,4.00
2023-04-28T20:48:50.381Z,4.38
2023-04-28T20:51:07.665Z,4.15
2023-04-28T20:53:24.616Z,3.38
2023-04-28T20:55:41.958Z,3.25
2023-04-28T20:57:58.931Z,3.10
2023-04-28T21:00:16.040Z,3.75
2023-04-28T21:02:34.428Z,3.70
2023-04-28T21:04:51.638Z,3.42
2023-04-28T21:07:08.677Z,3.47
2023-04-28T21:09:25.731Z,3.30
2023-04-28T21:11:42.640Z,2.80
2023-04-28T21:13:59.736Z,3.05
2023-04-28T21:16:20.234Z,3.28
2023-04-28T21:18:38.115Z,3.20
2023-04-28T21:20:56.187Z,3.28
2023-04-28T21:23:13.272Z,3.13
2023-04-28T21:25:30.638Z,2.83
2023-04-28T21:27:47.643Z,3.00
2023-04-28T21:30:05.569Z,2.83
2023-04-28T21:32:23.669Z,2.97
2023-04-28T21:34:41.083Z,3.17
2023-04-28T21:36:58.193Z,2.90
2023-04-28T21:39:16.439Z,2.80
2023-04-28T21:41:33.377Z,2.92
2023-04-28T21:43:50.457Z,3.20
2023-04-28T21:46:07.583Z,2.70
2023-04-28T21:48:25.919Z,2.50
2023-04-28T21:50:42.932Z,2.33
2023-04-28T21:53:00.222Z,2.20
2023-04-28T21:55:17.493Z,2.58
2023-04-28T21:57:35.614Z,3.22
2023-04-28T21:59:53.054Z,3.05
2023-04-28T22:02:10.176Z,3.70
2023-04-28T22:04:28.322Z,3.55
2023-04-28T22:06:45.355Z,3.53
2023-04-28T22:09:03.671Z,2.97
2023-04-28T22:11:20.659Z,2.78
2023-04-28T22:13:37.907Z,2.70
2023-04-28T22:15:55.243Z,2.15
2023-04-28T22:18:12.695Z,1.98
2023-04-28T22:20:29.777Z,2.10
2023-04-28T22:22:46.987Z,3.13
2023-04-28T22:25:04.197Z,3.13
2023-04-28T22:27:21.498Z,4.93
2023-04-28T22:29:38.706Z,5.07
2023-04-28T22:31:55.686Z,5.22
2023-04-28T22:34:13.048Z,4.53
2023-04-28T22:36:31.376Z,4.00
2023-04-28T22:38:48.737Z,3.10
2023-04-28T22:41:05.799Z,3.00
2023-04-28T22:43:22.687Z,3.47
2023-04-28T22:45:40.001Z,2.90
2023-04-28T22:47:57.035Z,2.83
2023-04-28T22:50:14.127Z,3.80
2023-04-28T22:52:32.057Z,3.13
2023-04-28T22:54:49.029Z,3.00
2023-04-28T22:57:06.347Z,3.10
2023-04-28T22:59:23.443Z,2.95
2023-04-28T23:01:40.514Z,2.90
2023-04-28T23:03:57.686Z,2.40
2023-04-28T23:06:15.245Z,2.72
2023-04-28T23:08:32.512Z,2.42
2023-04-28T23:10:49.803Z,2.38
2023-04-28T23:13:07.248Z,2.78
2023-04-28T23:15:24.200Z,2.25
2023-04-28T23:17:41.620Z,2.40
2023-04-28T23:19:58.959Z,2.20
2023-04-28T23:22:16.007Z,2.38
2023-04-28T23:24:33.960Z,2.90
2023-04-28T23:26:50.986Z,2.70
2023-04-28T23:29:08.208Z,3.00
2023-04-28T23:31:25.280Z,3.00
2023-04-28T23:33:42.676Z,3.03
2023-04-28T23:35:59.578Z,2.70
2023-04-28T23:38:16.693Z,2.92
2023-04-28T23:40:34.624Z,3.05
2023-04-28T23:42:53.320Z,2.85
2023-04-28T23:45:10.235Z,3.03
2023-04-28T23:47:27.344Z,2.85
2023-04-28T23:49:44.651Z,3.03
2023-04-28T23:52:01.638Z,2.60
2023-04-28T23:54:19.103Z,2.63
2023-04-28T23:56:36.022Z,2.50
2023-04-28T23:58:53.070Z,2.40
